createdAt,value
2019-02-03T00:00:44.404Z,47.40
2019-02-03T00:01:44.400Z,44.30
2019-02-03T00:02:44.434Z,42.70
2019-02-03T00:03:44.478Z,40.90
2019-02-03T00:04:44.509Z,51.50
2019-02-03T00:05:44.546Z,46.50
2019-02-03T00:06:44.594Z,49.30
2019-02-03T00:07:44.705Z,45.40
2019-02-03T00:08:44.653Z,40.40
2019-02-03T00:09:44.693Z,42.90
2019-02-03T00:10:44.767Z,42.00
2019-02-03T00:11:44.767Z,43.00
2019-02-03T00:12:44.801Z,44.40
2019-02-03T00:13:44.850Z,46.30
2019-02-03T00:14:44.884Z,46.70
2019-02-03T00:15:44.910Z,38.40
2019-02-03T00:16:44.947Z,51.40
2019-02-03T00:17:44.985Z,48.70
2019-02-03T00:18:45.214Z,41.40
2019-02-03T00:19:45.061Z,39.30
2019-02-03T00:20:45.374Z,46.00
2019-02-03T00:21:45.310Z,41.80
2019-02-03T00:22:45.175Z,37.10
2019-02-03T00:23:45.210Z,40.00
2019-02-03T00:24:45.306Z,39.00
2019-02-03T00:25:45.281Z,39.00
2019-02-03T00:26:45.314Z,39.70
2019-02-03T00:27:45.350Z,43.90
2019-02-03T00:28:45.394Z,45.90
2019-02-03T00:29:45.432Z,41.30
2019-02-03T00:30:45.464Z,40.80
2019-02-03T00:31:45.495Z,41.50
2019-02-03T00:32:45.533Z,50.20
2019-02-03T00:33:45.574Z,52.10
2019-02-03T00:34:45.607Z,44.60
2019-02-03T00:35:45.643Z,43.30
2019-02-03T00:36:45.680Z,39.10
2019-02-03T00:37:45.721Z,39.80
2019-02-03T00:38:45.760Z,40.70
2019-02-03T00:39:45.839Z,40.80
2019-02-03T00:40:45.856Z,41.10
2019-02-03T00:41:45.870Z,41.40
2019-02-03T00:42:45.908Z,42.20
2019-02-03T00:43:45.944Z,41.60
2019-02-03T00:44:45.976Z,42.20
2019-02-03T00:45:46.010Z,42.80
2019-02-03T00:46:46.046Z,41.80
2019-02-03T00:47:46.082Z,42.90
2019-02-03T00:48:46.123Z,43.70
2019-02-03T00:49:46.155Z,43.60
2019-02-03T00:50:46.245Z,43.60
2019-02-03T00:51:46.232Z,42.20
2019-02-03T00:52:46.268Z,44.20
2019-02-03T00:53:46.303Z,43.30
2019-02-03T00:54:46.340Z,43.90
2019-02-03T00:55:46.376Z,44.40
2019-02-03T00:56:46.413Z,43.20
2019-02-03T00:57:46.451Z,43.60
2019-02-03T00:58:46.496Z,41.70
2019-02-03T00:59:46.530Z,41.60
2019-02-03T01:00:46.558Z,42.50
2019-02-03T01:01:46.611Z,40.10
2019-02-03T01:02:46.630Z,42.10
2019-02-03T01:03:46.675Z,41.00
2019-02-03T01:04:46.785Z,40.80
2019-02-03T01:05:46.740Z,39.80
2019-02-03T01:06:46.777Z,38.20
2019-02-03T01:07:46.820Z,38.80
2019-02-03T01:08:46.854Z,39.40
2019-02-03T01:09:46.891Z,41.00
2019-02-03T01:10:47.024Z,38.50
2019-02-03T01:11:46.976Z,38.90
2019-02-03T01:12:46.997Z,40.50
2019-02-03T01:13:47.033Z,39.40
2019-02-03T01:14:47.072Z,36.00
2019-02-03T01:15:47.114Z,36.50
2019-02-03T01:16:47.146Z,40.60
2019-02-03T01:17:47.183Z,42.40
2019-02-03T01:18:47.217Z,41.40
2019-02-03T01:19:47.255Z,41.20
2019-02-03T01:20:47.290Z,41.60
2019-02-03T01:21:47.325Z,40.90
2019-02-03T01:22:47.363Z,42.90
2019-02-03T01:23:47.524Z,43.00
2019-02-03T01:24:47.436Z,42.30
2019-02-03T01:25:47.493Z,43.00
2019-02-03T01:26:47.519Z,39.00
2019-02-03T01:27:47.545Z,34.70
2019-02-03T01:28:47.582Z,35.00
2019-02-03T01:29:47.620Z,35.50
2019-02-03T01:30:47.659Z,35.50
2019-02-03T01:31:49.203Z,34.30
2019-02-03T01:32:47.731Z,37.10
2019-02-03T01:33:47.764Z,38.40
2019-02-03T01:34:47.799Z,39.30
2019-02-03T01:35:47.836Z,39.30
2019-02-03T01:36:47.875Z,40.30
2019-02-03T01:37:47.908Z,40.00
2019-02-03T01:38:47.959Z,38.70
2019-02-03T01:39:48.080Z,40.60
2019-02-03T01:40:48.020Z,42.10
2019-02-03T01:41:48.054Z,40.40
2019-02-03T01:42:48.096Z,40.50
2019-02-03T01:43:48.134Z,42.40
2019-02-03T01:44:48.164Z,39.70
2019-02-03T01:45:48.202Z,43.00
2019-02-03T01:46:48.602Z,41.00
2019-02-03T01:47:48.278Z,39.30
2019-02-03T01:48:48.760Z,41.50
2019-02-03T01:49:48.447Z,40.10
2019-02-03T01:50:48.389Z,43.50
2019-02-03T01:51:48.417Z,43.30
2019-02-03T01:52:48.456Z,44.30
2019-02-03T01:53:48.525Z,45.30
2019-02-03T01:54:48.528Z,44.40
2019-02-03T01:55:48.566Z,45.40
2019-02-03T01:56:48.922Z,47.20
2019-02-03T01:57:48.637Z,46.70
2019-02-03T01:58:48.675Z,46.70
2019-02-03T01:59:48.711Z,48.00
2019-02-03T02:00:48.746Z,46.60
2019-02-03T02:01:48.787Z,47.10
2019-02-03T02:02:48.819Z,47.70
2019-02-03T02:03:48.858Z,47.50
2019-02-03T02:04:48.902Z,50.90
2019-02-03T02:05:48.926Z,54.80
2019-02-03T02:06:48.971Z,54.00
2019-02-03T02:07:51.791Z,57.50
2019-02-03T02:08:49.043Z,57.30
2019-02-03T02:09:49.071Z,58.50
2019-02-03T02:10:49.131Z,59.30
2019-02-03T02:11:49.155Z,60.40
2019-02-03T02:12:49.193Z,60.60
2019-02-03T02:13:49.216Z,59.80
2019-02-03T02:14:49.370Z,61.80
2019-02-03T02:15:49.290Z,60.30
2019-02-03T02:16:49.325Z,59.70
2019-02-03T02:17:49.368Z,59.50
2019-02-03T02:18:49.398Z,59.30
2019-02-03T02:19:49.432Z,59.80
2019-02-03T02:20:49.470Z,55.40
2019-02-03T02:21:49.508Z,55.00
2019-02-03T02:22:49.551Z,59.30
2019-02-03T02:23:49.580Z,53.80
2019-02-03T02:24:49.617Z,55.30
2019-02-03T02:25:49.654Z,55.10
2019-02-03T02:26:49.687Z,55.30
2019-02-03T02:27:49.898Z,53.00
2019-02-03T02:28:49.768Z,46.70
2019-02-03T02:29:50.200Z,46.00
2019-02-03T02:30:49.834Z,39.10
2019-02-03T02:31:49.911Z,36.50
2019-02-03T02:32:50.062Z,39.30
2019-02-03T02:33:49.945Z,37.20
2019-02-03T02:34:49.982Z,37.40
2019-02-03T02:35:50.013Z,37.20
2019-02-03T02:36:50.052Z,36.50
2019-02-03T02:37:50.085Z,32.30
2019-02-03T02:38:50.124Z,34.50
2019-02-03T02:39:50.159Z,34.10
2019-02-03T02:40:50.190Z,34.30
2019-02-03T02:41:50.230Z,32.30
2019-02-03T02:42:50.267Z,33.10
2019-02-03T02:43:50.377Z,32.70
2019-02-03T02:44:50.520Z,32.80
2019-02-03T02:45:50.394Z,33.40
2019-02-03T02:46:50.418Z,33.40
2019-02-03T02:47:50.452Z,34.30
2019-02-03T02:48:50.484Z,33.80
2019-02-03T02:49:50.518Z,35.10
2019-02-03T02:50:50.554Z,34.10
2019-02-03T02:51:50.597Z,34.40
2019-02-03T02:52:50.627Z,32.50
2019-02-03T02:53:50.664Z,34.30
2019-02-03T02:54:50.701Z,33.80
2019-02-03T02:55:50.733Z,35.50
2019-02-03T02:56:50.770Z,36.10
2019-02-03T02:57:50.825Z,34.20
2019-02-03T02:58:50.854Z,33.40
2019-02-03T02:59:50.878Z,35.50
2019-02-03T03:00:50.918Z,33.90
2019-02-03T03:01:50.962Z,32.50
2019-02-03T03:02:51.021Z,34.10
2019-02-03T03:03:51.024Z,34.00
2019-02-03T03:04:51.061Z,32.30
2019-02-03T03:05:51.098Z,33.20
2019-02-03T03:06:51.139Z,32.80
2019-02-03T03:07:51.166Z,30.70
2019-02-03T03:08:51.205Z,33.10
2019-02-03T03:09:51.241Z,31.40
2019-02-03T03:10:51.287Z,32.90
2019-02-03T03:11:51.313Z,31.10
2019-02-03T03:12:51.351Z,32.60
2019-02-03T03:13:51.384Z,32.00
2019-02-03T03:14:51.424Z,34.50
2019-02-03T03:15:51.469Z,31.90
2019-02-03T03:16:51.513Z,32.10
2019-02-03T03:17:51.580Z,31.20
2019-02-03T03:18:51.566Z,32.20
2019-02-03T03:19:51.601Z,32.50
2019-02-03T03:20:51.646Z,32.90
2019-02-03T03:21:51.683Z,33.90
2019-02-03T03:22:51.711Z,33.40
2019-02-03T03:23:51.746Z,33.60
2019-02-03T03:24:51.789Z,31.50
2019-02-03T03:25:51.818Z,33.00
2019-02-03T03:26:51.857Z,33.00
2019-02-03T03:27:51.899Z,34.80
2019-02-03T03:28:51.928Z,34.10
2019-02-03T03:29:51.966Z,35.20
2019-02-03T03:30:52.008Z,32.60
2019-02-03T03:31:52.045Z,32.30
2019-02-03T03:32:52.072Z,35.40
2019-02-03T03:33:52.109Z,34.50
2019-02-03T03:34:52.145Z,35.50
2019-02-03T03:35:52.181Z,36.20
2019-02-03T03:36:52.218Z,36.90
2019-02-03T03:37:52.296Z,37.10
2019-02-03T03:38:52.292Z,36.70
2019-02-03T03:39:52.326Z,38.00
2019-02-03T03:40:52.365Z,38.40
2019-02-03T03:41:52.398Z,35.60
2019-02-03T03:42:52.438Z,37.90
2019-02-03T03:43:52.472Z,36.50
2019-02-03T03:44:52.508Z,37.70
2019-02-03T03:45:52.543Z,36.00
2019-02-03T03:46:52.576Z,34.80
2019-02-03T03:47:52.615Z,36.60
2019-02-03T03:48:52.650Z,33.50
2019-02-03T03:49:52.687Z,36.90
2019-02-03T03:50:52.724Z,37.30
2019-02-03T03:51:52.758Z,35.40
2019-02-03T03:52:52.801Z,36.70
2019-02-03T03:53:52.839Z,37.40
2019-02-03T03:54:52.867Z,37.50
2019-02-03T03:55:52.902Z,38.50
2019-02-03T03:56:52.941Z,37.00
2019-02-03T03:57:52.993Z,36.70
2019-02-03T03:58:53.012Z,35.00
2019-02-03T03:59:53.048Z,37.00
2019-02-03T04:00:53.133Z,35.60
2019-02-03T04:01:53.120Z,35.10
2019-02-03T04:02:53.164Z,37.80
2019-02-03T04:03:53.190Z,37.90
2019-02-03T04:04:53.226Z,35.90
2019-02-03T04:05:53.266Z,36.40
2019-02-03T04:06:53.301Z,36.00
2019-02-03T04:07:53.435Z,38.00
2019-02-03T04:08:53.379Z,36.10
2019-02-03T04:09:53.407Z,36.20
2019-02-03T04:10:53.444Z,38.40
2019-02-03T04:11:53.479Z,38.00
2019-02-03T04:12:53.515Z,39.50
2019-02-03T04:13:53.552Z,38.80
2019-02-03T04:14:53.590Z,39.20
2019-02-03T04:15:53.623Z,38.40
2019-02-03T04:16:53.659Z,38.50
2019-02-03T04:17:53.693Z,38.30
2019-02-03T04:18:53.737Z,37.80
2019-02-03T04:19:53.767Z,38.80
2019-02-03T04:20:53.803Z,39.90
2019-02-03T04:21:53.840Z,40.90
2019-02-03T04:22:53.875Z,41.30
2019-02-03T04:23:53.910Z,39.50
2019-02-03T04:24:53.946Z,38.10
2019-02-03T04:25:53.984Z,39.50
2019-02-03T04:26:54.019Z,39.90
2019-02-03T04:27:54.053Z,41.50
2019-02-03T04:28:54.090Z,39.10
2019-02-03T04:29:54.125Z,39.50
2019-02-03T04:30:54.161Z,40.10
2019-02-03T04:31:54.197Z,39.50
2019-02-03T04:32:54.241Z,38.70
2019-02-03T04:33:54.269Z,38.80
2019-02-03T04:34:54.305Z,38.10
2019-02-03T04:35:54.341Z,36.80
2019-02-03T04:36:54.389Z,38.50
2019-02-03T04:37:54.414Z,39.50
2019-02-03T04:38:58.167Z,38.00
2019-02-03T04:39:54.494Z,38.10
2019-02-03T04:40:54.530Z,37.60
2019-02-03T04:41:54.557Z,38.20
2019-02-03T04:42:54.594Z,34.50
2019-02-03T04:43:54.639Z,37.70
2019-02-03T04:44:54.669Z,35.20
2019-02-03T04:45:54.705Z,36.50
2019-02-03T04:46:54.739Z,34.40
2019-02-03T04:47:54.774Z,33.90
2019-02-03T04:48:54.817Z,32.90
2019-02-03T04:49:54.854Z,36.50
2019-02-03T04:50:54.883Z,32.10
2019-02-03T04:51:54.918Z,34.40
2019-02-03T04:52:54.954Z,35.80
2019-02-03T04:53:54.990Z,34.50
2019-02-03T04:54:55.025Z,30.30
2019-02-03T04:55:55.060Z,33.00
2019-02-03T04:56:55.096Z,38.60
2019-02-03T04:57:55.137Z,32.70
2019-02-03T04:58:55.225Z,34.60
2019-02-03T04:59:55.204Z,34.20
2019-02-03T05:00:55.241Z,35.30
2019-02-03T05:01:55.293Z,38.80
2019-02-03T05:02:55.314Z,36.10
2019-02-03T05:03:55.354Z,41.40
2019-02-03T05:04:55.385Z,39.90
2019-02-03T05:05:55.421Z,40.90
2019-02-03T05:06:55.467Z,40.40
2019-02-03T05:07:55.502Z,44.60
2019-02-03T05:08:55.527Z,42.20
2019-02-03T05:09:55.565Z,38.00
2019-02-03T05:10:55.600Z,39.00
2019-02-03T05:11:55.634Z,39.50
2019-02-03T05:12:55.671Z,36.90
2019-02-03T05:13:55.708Z,37.90
2019-02-03T05:14:55.842Z,39.60
2019-02-03T05:15:55.788Z,41.70
2019-02-03T05:16:55.814Z,37.30
2019-02-03T05:17:55.858Z,38.70
2019-02-03T05:18:55.888Z,39.70
2019-02-03T05:19:55.921Z,41.30
2019-02-03T05:20:55.961Z,37.50
2019-02-03T05:21:55.995Z,39.10
2019-02-03T05:22:56.028Z,41.30
2019-02-03T05:23:56.063Z,37.80
2019-02-03T05:24:56.106Z,40.10
2019-02-03T05:25:56.133Z,38.40
2019-02-03T05:26:56.170Z,39.90
2019-02-03T05:27:56.205Z,37.50
2019-02-03T05:28:56.241Z,40.30
2019-02-03T05:29:56.278Z,38.40
2019-02-03T05:30:56.312Z,40.30
2019-02-03T05:31:56.347Z,41.10
2019-02-03T05:32:56.383Z,38.40
2019-02-03T05:33:56.421Z,43.80
2019-02-03T05:34:56.470Z,38.90
2019-02-03T05:35:56.492Z,34.10
2019-02-03T05:36:56.526Z,46.20
2019-02-03T05:37:56.561Z,41.40
2019-02-03T05:38:56.598Z,39.10
2019-02-03T05:39:56.638Z,38.30
2019-02-03T05:40:56.668Z,35.10
2019-02-03T05:41:56.710Z,37.70
2019-02-03T05:42:56.741Z,37.90
2019-02-03T05:43:56.776Z,40.90
2019-02-03T05:44:56.820Z,38.20
2019-02-03T05:45:56.853Z,37.30
2019-02-03T05:46:56.881Z,35.60
2019-02-03T05:47:57.020Z,35.40
2019-02-03T05:48:56.952Z,35.90
2019-02-03T05:49:56.988Z,36.40
2019-02-03T05:50:57.022Z,39.80
2019-02-03T05:51:57.171Z,39.20
2019-02-03T05:52:57.093Z,38.10
2019-02-03T05:53:57.131Z,38.20
2019-02-03T05:54:57.166Z,37.40
2019-02-03T05:55:57.201Z,37.80
2019-02-03T05:56:57.242Z,39.10
2019-02-03T05:57:57.270Z,38.40
2019-02-03T05:58:57.307Z,37.30
2019-02-03T05:59:57.342Z,37.50
2019-02-03T06:00:57.379Z,35.90
2019-02-03T06:01:57.412Z,37.30
2019-02-03T06:02:57.449Z,36.00
2019-02-03T06:03:57.482Z,34.50
2019-02-03T06:04:57.518Z,32.90
2019-02-03T06:05:57.554Z,35.00
2019-02-03T06:06:57.591Z,35.60
2019-02-03T06:07:57.638Z,36.10
2019-02-03T06:08:57.661Z,33.90
2019-02-03T06:09:57.699Z,35.00
2019-02-03T06:10:57.732Z,31.80
2019-02-03T06:11:57.770Z,28.50
2019-02-03T06:12:57.803Z,26.80
2019-02-03T06:13:57.870Z,29.00
2019-02-03T06:14:57.875Z,29.40
2019-02-03T06:15:57.916Z,28.00
2019-02-03T06:16:57.955Z,29.40
2019-02-03T06:17:57.985Z,29.70
2019-02-03T06:18:58.018Z,29.30
2019-02-03T06:19:58.051Z,29.30
2019-02-03T06:20:58.096Z,30.00
2019-02-03T06:21:58.123Z,28.90
2019-02-03T06:22:58.167Z,30.10
2019-02-03T06:23:58.193Z,31.70
2019-02-03T06:24:58.234Z,29.60
2019-02-03T06:25:58.269Z,29.80
2019-02-03T06:26:58.311Z,31.20
2019-02-03T06:27:58.336Z,28.40
2019-02-03T06:28:58.372Z,29.80
2019-02-03T06:29:58.409Z,30.80
2019-02-03T06:30:58.502Z,30.70
2019-02-03T06:31:58.481Z,31.40
2019-02-03T06:32:58.526Z,30.10
2019-02-03T06:33:58.557Z,32.20
2019-02-03T06:34:58.585Z,30.00
2019-02-03T06:35:58.624Z,30.00
2019-02-03T06:36:58.657Z,30.50
2019-02-03T06:37:58.743Z,30.90
2019-02-03T06:38:58.728Z,29.00
2019-02-03T06:39:58.770Z,30.40
2019-02-03T06:40:58.798Z,29.90
2019-02-03T06:41:58.834Z,28.60
2019-02-03T06:42:58.886Z,30.10
2019-02-03T06:43:58.906Z,29.00
2019-02-03T06:44:58.950Z,30.00
2019-02-03T06:45:58.978Z,30.20
2019-02-03T06:46:59.013Z,28.10
2019-02-03T06:47:59.451Z,25.70
2019-02-03T06:48:59.083Z,29.20
2019-02-03T06:49:59.119Z,26.70
2019-02-03T06:50:59.159Z,27.70
2019-02-03T06:51:59.192Z,28.80
2019-02-03T06:52:59.227Z,29.00
2019-02-03T06:53:59.261Z,29.60
2019-02-03T06:54:59.297Z,29.40
2019-02-03T06:55:59.333Z,29.90
2019-02-03T06:56:59.369Z,28.60
2019-02-03T06:57:59.404Z,27.60
2019-02-03T06:58:59.440Z,28.30
2019-02-03T06:59:59.475Z,29.00
2019-02-03T07:00:59.510Z,30.20
2019-02-03T07:01:59.551Z,29.10
2019-02-03T07:02:59.584Z,28.60
2019-02-03T07:03:59.624Z,26.90
2019-02-03T07:04:59.652Z,26.90
2019-02-03T07:05:59.695Z,28.20
2019-02-03T07:06:59.727Z,29.10
2019-02-03T07:07:59.758Z,25.50
2019-02-03T07:08:59.834Z,28.90
2019-02-03T07:10:00.770Z,28.20
2019-02-03T07:10:59.867Z,27.90
2019-02-03T07:11:59.901Z,28.50
2019-02-03T07:12:59.939Z,28.40
2019-02-03T07:13:59.973Z,24.80
2019-02-03T07:15:00.015Z,27.80
2019-02-03T07:16:00.045Z,28.60
2019-02-03T07:17:00.081Z,29.60
2019-02-03T07:18:00.116Z,29.70
2019-02-03T07:19:00.201Z,28.40
2019-02-03T07:20:00.312Z,28.40
2019-02-03T07:21:00.223Z,28.70
2019-02-03T07:22:00.274Z,29.20
2019-02-03T07:23:00.295Z,27.80
2019-02-03T07:24:00.328Z,24.60
2019-02-03T07:25:00.378Z,28.20
2019-02-03T07:26:00.408Z,26.50
2019-02-03T07:27:00.448Z,29.30
2019-02-03T07:28:00.473Z,28.30
2019-02-03T07:29:00.524Z,29.20
2019-02-03T07:30:00.544Z,27.40
2019-02-03T07:31:00.588Z,26.10
2019-02-03T07:32:00.617Z,27.30
2019-02-03T07:33:00.649Z,28.20
2019-02-03T07:34:00.687Z,26.90
2019-02-03T07:35:00.728Z,27.80
2019-02-03T07:36:00.757Z,26.20
2019-02-03T07:37:00.793Z,26.00
2019-02-03T07:38:00.848Z,24.30
2019-02-03T07:39:00.865Z,23.50
2019-02-03T07:40:11.668Z,26.40
2019-02-03T07:41:00.934Z,26.20
2019-02-03T07:42:00.978Z,28.40
2019-02-03T07:43:01.007Z,27.40
2019-02-03T07:44:01.049Z,26.60
2019-02-03T07:45:01.077Z,23.50
2019-02-03T07:46:01.114Z,25.30
2019-02-03T07:47:01.266Z,26.80
2019-02-03T07:48:01.206Z,26.90
2019-02-03T07:49:01.220Z,26.30
2019-02-03T07:50:01.257Z,25.30
2019-02-03T07:51:01.299Z,24.50
2019-02-03T07:52:01.331Z,24.90
2019-02-03T07:53:01.363Z,25.80
2019-02-03T07:54:08.562Z,26.70
2019-02-03T07:55:01.436Z,23.60
2019-02-03T07:56:01.471Z,23.70
2019-02-03T07:57:01.505Z,24.00
2019-02-03T07:58:01.542Z,23.00
2019-02-03T07:59:01.615Z,25.10
2019-02-03T08:00:01.620Z,24.40
2019-02-03T08:01:01.649Z,23.40
2019-02-03T08:02:01.691Z,22.50
2019-02-03T08:03:01.729Z,22.90
2019-02-03T08:04:01.758Z,23.50
2019-02-03T08:05:01.802Z,21.90
2019-02-03T08:06:01.828Z,21.00
2019-02-03T08:07:01.871Z,21.20
2019-02-03T08:08:01.905Z,21.80
2019-02-03T08:09:01.935Z,20.40
2019-02-03T08:10:01.979Z,21.40
2019-02-03T08:11:04.608Z,20.70
2019-02-03T08:12:02.044Z,21.00
2019-02-03T08:13:02.088Z,19.40
2019-02-03T08:14:02.114Z,21.60
2019-02-03T08:15:02.149Z,21.00
2019-02-03T08:16:02.193Z,20.90
2019-02-03T08:17:02.219Z,20.10
2019-02-03T08:18:02.262Z,20.50
2019-02-03T08:19:02.292Z,20.10
2019-02-03T08:20:02.338Z,21.10
2019-02-03T08:21:02.365Z,21.70
2019-02-03T08:22:02.411Z,22.10
2019-02-03T08:23:02.438Z,20.60
2019-02-03T08:24:02.476Z,19.90
2019-02-03T08:25:02.515Z,19.90
2019-02-03T08:26:02.545Z,20.90
2019-02-03T08:27:02.582Z,20.80
2019-02-03T08:28:02.615Z,20.70
2019-02-03T08:29:02.651Z,22.30
2019-02-03T08:30:02.687Z,22.70
2019-02-03T08:31:02.722Z,21.80
2019-02-03T08:32:02.758Z,22.40
2019-02-03T08:33:02.815Z,21.50
2019-02-03T08:34:02.833Z,23.30
2019-02-03T08:35:02.897Z,20.70
2019-02-03T08:36:02.909Z,22.40
2019-02-03T08:37:02.942Z,22.70
2019-02-03T08:38:02.984Z,23.70
2019-02-03T08:39:03.017Z,22.20
2019-02-03T08:40:03.046Z,22.00
2019-02-03T08:41:03.085Z,23.00
2019-02-03T08:42:03.121Z,21.90
2019-02-03T08:43:03.162Z,22.70
2019-02-03T08:44:03.191Z,23.80
2019-02-03T08:45:03.255Z,21.40
2019-02-03T08:46:03.265Z,20.80
2019-02-03T08:47:03.299Z,23.10
2019-02-03T08:48:03.339Z,20.40
2019-02-03T08:49:03.370Z,20.40
2019-02-03T08:50:03.403Z,22.80
2019-02-03T08:51:03.442Z,21.00
2019-02-03T08:52:03.492Z,22.10
2019-02-03T08:53:03.511Z,22.50
2019-02-03T08:54:03.548Z,20.00
2019-02-03T08:55:03.584Z,22.60
2019-02-03T08:56:03.627Z,21.20
2019-02-03T08:57:03.655Z,21.60
2019-02-03T08:58:03.692Z,20.40
2019-02-03T08:59:03.728Z,19.40
2019-02-03T09:00:03.776Z,20.90
2019-02-03T09:01:03.798Z,22.70
2019-02-03T09:02:03.840Z,22.40
2019-02-03T09:03:03.880Z,22.10
2019-02-03T09:04:03.910Z,20.80
2019-02-03T09:05:03.943Z,22.30
2019-02-03T09:06:03.987Z,22.10
2019-02-03T09:07:04.041Z,23.30
2019-02-03T09:08:04.052Z,24.00
2019-02-03T09:09:04.089Z,23.00
2019-02-03T09:10:04.127Z,22.40
2019-02-03T09:11:04.161Z,22.60
2019-02-03T09:12:04.198Z,22.00
2019-02-03T09:13:04.235Z,22.20
2019-02-03T09:14:04.277Z,23.00
2019-02-03T09:15:04.321Z,22.10
2019-02-03T09:16:04.365Z,23.10
2019-02-03T09:17:04.408Z,23.10
2019-02-03T09:18:04.415Z,23.50
2019-02-03T09:19:04.458Z,21.60
2019-02-03T09:20:04.487Z,22.30
2019-02-03T09:21:04.532Z,23.40
2019-02-03T09:22:04.564Z,23.90
2019-02-03T09:23:04.593Z,23.70
2019-02-03T09:24:04.649Z,23.90
2019-02-03T09:25:04.667Z,24.40
2019-02-03T09:26:04.711Z,22.00
2019-02-03T09:27:04.738Z,22.10
2019-02-03T09:28:04.773Z,20.70
2019-02-03T09:29:04.822Z,22.50
2019-02-03T09:30:04.852Z,20.60
2019-02-03T09:31:04.982Z,19.60
2019-02-03T09:32:04.929Z,21.40
2019-02-03T09:33:04.962Z,20.00
2019-02-03T09:34:04.993Z,20.90
2019-02-03T09:35:05.037Z,21.70
2019-02-03T09:36:05.065Z,21.70
2019-02-03T09:37:05.130Z,20.20
2019-02-03T09:38:05.139Z,17.90
2019-02-03T09:39:05.173Z,19.40
2019-02-03T09:40:05.224Z,20.80
2019-02-03T09:41:05.255Z,21.40
2019-02-03T09:42:05.282Z,21.20
2019-02-03T09:43:05.321Z,20.30
2019-02-03T09:44:05.365Z,19.20
2019-02-03T09:45:05.416Z,18.70
2019-02-03T09:46:05.432Z,18.70
2019-02-03T09:47:05.476Z,18.70
2019-02-03T09:48:05.517Z,19.20
2019-02-03T09:49:05.539Z,18.50
2019-02-03T09:50:05.584Z,16.80
2019-02-03T09:51:05.641Z,15.90
2019-02-03T09:52:05.653Z,14.90
2019-02-03T09:53:05.833Z,15.00
2019-02-03T09:54:05.737Z,15.40
2019-02-03T09:55:05.811Z,15.20
2019-02-03T09:56:06.582Z,15.50
2019-02-03T09:57:05.881Z,14.90
2019-02-03T09:58:05.871Z,14.50
2019-02-03T09:59:06.160Z,16.10
2019-02-03T10:00:05.942Z,14.90
2019-02-03T10:01:06.256Z,14.30
2019-02-03T10:02:06.171Z,14.90
2019-02-03T10:03:06.053Z,14.90
2019-02-03T10:04:06.103Z,12.30
2019-02-03T10:05:06.134Z,14.70
2019-02-03T10:06:06.167Z,12.30
2019-02-03T10:07:06.201Z,13.80
2019-02-03T10:08:06.233Z,14.00
2019-02-03T10:09:06.277Z,15.90
2019-02-03T10:10:06.311Z,14.00
2019-02-03T10:11:12.171Z,14.60
2019-02-03T10:12:06.382Z,13.70
2019-02-03T10:13:06.423Z,13.00
2019-02-03T10:14:06.454Z,14.90
2019-02-03T10:15:06.489Z,14.20
2019-02-03T10:16:06.526Z,14.10
2019-02-03T10:17:06.569Z,15.80
2019-02-03T10:18:06.599Z,14.90
2019-02-03T10:19:06.638Z,15.30
2019-02-03T10:20:06.677Z,14.90
2019-02-03T10:21:06.711Z,15.40
2019-02-03T10:22:06.748Z,16.90
2019-02-03T10:23:06.798Z,18.00
2019-02-03T10:24:06.831Z,16.60
2019-02-03T10:25:06.854Z,18.00
2019-02-03T10:26:06.898Z,17.60
2019-02-03T10:27:06.931Z,16.80
2019-02-03T10:28:06.969Z,19.40
2019-02-03T10:29:07.109Z,17.80
2019-02-03T10:30:07.037Z,16.40
2019-02-03T10:31:07.074Z,17.10
2019-02-03T10:32:07.117Z,15.40
2019-02-03T10:33:07.154Z,14.80
2019-02-03T10:34:07.185Z,17.20
2019-02-03T10:35:07.227Z,16.90
2019-02-03T10:36:07.260Z,19.80
2019-02-03T10:37:07.294Z,17.80
2019-02-03T10:38:07.432Z,21.30
2019-02-03T10:39:07.374Z,16.30
2019-02-03T10:40:07.408Z,17.20
2019-02-03T10:41:08.011Z,16.40
2019-02-03T10:42:07.478Z,16.00
2019-02-03T10:43:07.929Z,14.70
2019-02-03T10:44:07.556Z,14.60
2019-02-03T10:45:07.784Z,13.00
2019-02-03T10:46:07.626Z,14.20
2019-02-03T10:47:07.807Z,16.00
2019-02-03T10:48:07.737Z,15.50
2019-02-03T10:49:07.737Z,18.10
2019-02-03T10:50:07.775Z,14.10
2019-02-03T10:51:07.809Z,12.40
2019-02-03T10:52:07.853Z,14.00
2019-02-03T10:53:07.889Z,13.40
2019-02-03T10:54:07.918Z,14.60
2019-02-03T10:55:07.972Z,14.80
2019-02-03T10:56:07.994Z,13.20
2019-02-03T10:57:08.033Z,13.90
2019-02-03T10:58:08.068Z,18.80
2019-02-03T10:59:08.105Z,16.10
2019-02-03T11:00:18.171Z,20.20
2019-02-03T11:01:08.174Z,18.00
2019-02-03T11:02:08.220Z,14.40
2019-02-03T11:03:08.269Z,12.90
2019-02-03T11:04:08.285Z,12.40
2019-02-03T11:05:08.322Z,13.40
2019-02-03T11:06:08.360Z,12.60
2019-02-03T11:08:08.433Z,12.60
2019-02-03T11:09:08.469Z,13.50
2019-02-03T11:10:08.511Z,11.90
2019-02-03T11:11:08.545Z,12.40
2019-02-03T11:12:08.580Z,12.40
2019-02-03T11:13:09.182Z,14.30
2019-02-03T11:14:08.653Z,13.30
2019-02-03T11:15:08.690Z,12.90
2019-02-03T11:16:08.724Z,12.80
2019-02-03T11:17:08.769Z,15.10
2019-02-03T11:18:08.808Z,14.70
2019-02-03T11:19:08.837Z,14.40
2019-02-03T11:20:08.875Z,15.60
2019-02-03T11:21:08.920Z,15.40
2019-02-03T11:22:08.944Z,18.00
2019-02-03T11:23:08.983Z,14.70
2019-02-03T11:24:09.024Z,11.90
2019-02-03T11:25:09.065Z,12.80
2019-02-03T11:26:09.116Z,13.10
2019-02-03T11:27:09.141Z,13.00
2019-02-03T11:28:09.223Z,14.30
2019-02-03T11:29:09.241Z,14.40
2019-02-03T11:30:09.262Z,15.70
2019-02-03T11:31:09.289Z,14.20
2019-02-03T11:32:09.319Z,15.20
2019-02-03T11:33:09.770Z,13.20
2019-02-03T11:34:09.398Z,13.30
2019-02-03T11:35:09.427Z,14.50
2019-02-03T11:36:09.461Z,14.20
2019-02-03T11:37:09.507Z,13.80
2019-02-03T11:38:09.542Z,13.90
2019-02-03T11:39:09.678Z,14.20
2019-02-03T11:40:09.618Z,13.50
2019-02-03T11:41:09.643Z,12.40
2019-02-03T11:42:09.779Z,13.00
2019-02-03T11:43:09.719Z,12.50
2019-02-03T11:44:09.760Z,13.60
2019-02-03T11:45:09.790Z,15.30
2019-02-03T11:46:09.841Z,15.10
2019-02-03T11:47:09.867Z,13.40
2019-02-03T11:48:09.915Z,14.00
2019-02-03T11:49:10.048Z,14.80
2019-02-03T11:50:09.978Z,15.90
2019-02-03T11:51:10.029Z,14.80
2019-02-03T11:52:10.047Z,13.40
2019-02-03T11:53:10.093Z,12.70
2019-02-03T11:54:10.172Z,14.00
2019-02-03T11:55:10.166Z,12.90
2019-02-03T11:56:10.639Z,13.10
2019-02-03T11:57:10.240Z,13.30
2019-02-03T11:58:10.712Z,13.00
2019-02-03T11:59:10.802Z,13.30
2019-02-03T12:00:10.343Z,14.30
2019-02-03T12:01:10.379Z,14.80
2019-02-03T12:02:10.416Z,13.60
2019-02-03T12:03:11.048Z,13.90
2019-02-03T12:04:10.597Z,13.10
2019-02-03T12:05:10.535Z,14.60
2019-02-03T12:06:10.585Z,14.40
2019-02-03T12:07:10.624Z,13.30
2019-02-03T12:08:10.696Z,14.40
2019-02-03T12:09:10.677Z,13.90
2019-02-03T12:10:10.719Z,14.10
2019-02-03T12:11:10.747Z,13.90
2019-02-03T12:12:10.891Z,14.40
2019-02-03T12:13:10.834Z,13.20
2019-02-03T12:14:10.866Z,14.30
2019-02-03T12:15:10.899Z,18.10
2019-02-03T12:16:10.933Z,15.10
2019-02-03T12:17:10.970Z,14.80
2019-02-03T12:18:11.007Z,14.50
2019-02-03T12:19:11.042Z,13.50
2019-02-03T12:20:11.079Z,13.60
2019-02-03T12:21:11.119Z,13.50
2019-02-03T12:22:11.152Z,14.60
2019-02-03T12:23:11.207Z,14.10
2019-02-03T12:24:11.231Z,14.70
2019-02-03T12:25:11.283Z,14.10
2019-02-03T12:26:11.301Z,13.50
2019-02-03T12:27:11.346Z,14.60
2019-02-03T12:28:11.376Z,13.70
2019-02-03T12:29:11.426Z,13.90
2019-02-03T12:30:11.448Z,12.80
2019-02-03T12:31:11.488Z,12.50
2019-02-03T12:32:11.532Z,13.30
2019-02-03T12:33:11.559Z,14.00
2019-02-03T12:34:11.596Z,13.90
2019-02-03T12:35:11.634Z,15.20
2019-02-03T12:36:11.669Z,15.20
2019-02-03T12:37:11.713Z,13.60
2019-02-03T12:38:11.745Z,15.10
2019-02-03T12:39:11.776Z,14.30
2019-02-03T12:40:11.942Z,14.20
2019-02-03T12:41:11.853Z,13.40
2019-02-03T12:42:13.515Z,14.60
2019-02-03T12:43:11.932Z,13.30
2019-02-03T12:44:12.128Z,13.50
2019-02-03T12:45:11.998Z,13.90
2019-02-03T12:46:12.059Z,14.50
2019-02-03T12:47:12.069Z,14.10
2019-02-03T12:48:12.119Z,14.60
2019-02-03T12:49:12.150Z,14.90
2019-02-03T12:50:12.286Z,14.80
2019-02-03T12:51:12.228Z,14.90
2019-02-03T12:52:12.264Z,14.00
2019-02-03T12:53:12.354Z,15.00
2019-02-03T12:54:12.327Z,14.20